createdAt,value
2022-10-19T00:01:13.544Z,15.20
2022-10-19T00:03:41.129Z,15.19
2022-10-19T00:06:28.945Z,15.16
2022-10-19T00:08:58.521Z,15.16
2022-10-19T00:11:26.226Z,15.13
2022-10-19T00:13:54.843Z,15.12
2022-10-19T00:16:23.131Z,15.09
2022-10-19T00:18:49.891Z,15.10
2022-10-19T00:21:18.838Z,15.11
2022-10-19T00:23:45.934Z,15.09
2022-10-19T00:26:13.956Z,15.07
2022-10-19T00:28:41.306Z,15.08
2022-10-19T00:31:14.153Z,15.06
2022-10-19T00:33:49.559Z,15.06
2022-10-19T00:36:16.375Z,15.02
2022-10-19T00:38:43.395Z,14.98
2022-10-19T00:41:10.430Z,14.97
2022-10-19T00:43:54.660Z,14.93
2022-10-19T00:46:22.173Z,14.94
2022-10-19T00:51:39.535Z,14.89
2022-10-19T00:54:07.741Z,14.87
2022-10-19T00:56:35.646Z,14.88
2022-10-19T00:59:05.907Z,14.81
2022-10-19T01:01:34.159Z,14.77
2022-10-19T01:04:01.972Z,14.74
2022-10-19T01:06:32.231Z,14.71
2022-10-19T01:08:58.948Z,14.68
2022-10-19T01:11:54.998Z,14.68
2022-10-19T01:14:21.747Z,14.66
2022-10-19T01:16:56.604Z,14.64
2022-10-19T01:20:00.226Z,14.59
2022-10-19T01:22:48.360Z,14.56
2022-10-19T01:25:33.660Z,14.52
2022-10-19T01:28:00.378Z,14.55
2022-10-19T01:30:50.908Z,14.56
2022-10-19T01:33:43.359Z,14.56
2022-10-19T01:36:37.511Z,14.53
2022-10-19T01:39:30.399Z,14.54
2022-10-19T01:42:02.974Z,14.55
2022-10-19T01:44:40.857Z,14.57
2022-10-19T01:47:15.904Z,14.56
2022-10-19T01:49:49.749Z,14.57
2022-10-19T01:52:20.880Z,14.55
2022-10-19T01:54:54.062Z,14.55
2022-10-19T01:57:28.372Z,14.57
2022-10-19T01:59:57.476Z,14.57
2022-10-19T02:02:27.143Z,14.57
2022-10-19T02:04:57.586Z,14.55
2022-10-19T02:07:25.487Z,14.55
2022-10-19T02:09:52.291Z,14.57
2022-10-19T02:12:20.294Z,14.58
2022-10-19T02:14:52.309Z,14.57
2022-10-19T02:17:27.503Z,14.58
2022-10-19T02:19:55.390Z,14.57
2022-10-19T02:22:22.379Z,14.57
2022-10-19T02:24:49.155Z,14.58
2022-10-19T02:27:16.450Z,14.57
2022-10-19T02:29:43.512Z,14.58
2022-10-19T02:32:11.348Z,14.57
2022-10-19T02:34:39.598Z,14.57
2022-10-19T02:37:07.312Z,14.57
2022-10-19T02:39:34.343Z,14.58
2022-10-19T02:42:07.203Z,14.59
2022-10-19T02:44:36.665Z,14.56
2022-10-19T02:47:10.856Z,14.58
2022-10-19T02:49:38.989Z,14.54
2022-10-19T02:52:08.692Z,14.54
2022-10-19T02:54:36.228Z,14.55
2022-10-19T02:57:09.978Z,14.55
2022-10-19T02:59:36.706Z,14.56
2022-10-19T03:02:03.457Z,14.55
2022-10-19T03:04:30.203Z,14.54
2022-10-19T03:06:56.966Z,14.57
2022-10-19T03:09:23.782Z,14.55
2022-10-19T03:11:50.496Z,14.57
2022-10-19T03:14:17.222Z,14.59
2022-10-19T03:16:44.026Z,14.60
2022-10-19T03:19:10.773Z,14.63
2022-10-19T03:21:37.624Z,14.66
2022-10-19T03:24:04.599Z,14.68
2022-10-19T03:26:31.365Z,14.71
2022-10-19T03:28:58.134Z,14.72
2022-10-19T03:31:25.878Z,14.73
2022-10-19T03:33:52.930Z,14.74
2022-10-19T03:36:23.015Z,14.75
2022-10-19T03:38:52.062Z,14.80
2022-10-19T03:41:20.102Z,14.82
2022-10-19T03:43:47.208Z,14.85
2022-10-19T03:46:14.123Z,14.88
2022-10-19T03:48:40.891Z,14.90
2022-10-19T03:51:10.597Z,14.91
2022-10-19T03:53:37.693Z,14.94
2022-10-19T03:56:13.125Z,14.97
2022-10-19T03:58:41.403Z,14.99
2022-10-19T04:01:11.698Z,15.01
2022-10-19T04:03:39.010Z,14.99
2022-10-19T04:06:10.591Z,15.00
2022-10-19T04:08:37.381Z,15.01
2022-10-19T04:11:08.035Z,15.02
2022-10-19T04:13:39.464Z,15.02
2022-10-19T04:16:06.629Z,15.02
2022-10-19T04:18:33.822Z,15.03
2022-10-19T04:21:05.412Z,15.04
2022-10-19T04:23:36.310Z,15.04
2022-10-19T04:26:07.709Z,15.06
2022-10-19T04:28:35.119Z,15.07
2022-10-19T04:31:03.685Z,15.08
2022-10-19T04:33:30.507Z,15.06
2022-10-19T04:36:05.461Z,15.07
2022-10-19T04:38:32.931Z,15.08
2022-10-19T04:41:11.399Z,15.08
2022-10-19T04:43:38.310Z,15.08
2022-10-19T04:46:10.877Z,15.08
2022-10-19T04:48:39.048Z,15.09
2022-10-19T04:51:06.816Z,15.09
2022-10-19T04:53:34.768Z,15.08
2022-10-19T04:56:06.166Z,15.11
2022-10-19T04:58:32.903Z,15.11
2022-10-19T05:00:59.829Z,15.13
2022-10-19T05:03:26.594Z,15.10
2022-10-19T05:05:53.385Z,15.08
2022-10-19T05:08:20.091Z,15.08
2022-10-19T05:10:47.775Z,15.08
2022-10-19T05:13:14.933Z,15.08
2022-10-19T05:15:41.744Z,15.11
2022-10-19T05:18:08.475Z,15.12
2022-10-19T05:20:35.221Z,15.12
2022-10-19T05:23:06.225Z,15.11
2022-10-19T05:25:34.248Z,15.12
2022-10-19T05:28:01.014Z,15.14
2022-10-19T05:30:27.785Z,15.12
2022-10-19T05:32:54.527Z,15.16
2022-10-19T05:35:22.664Z,15.17
2022-10-19T05:37:54.578Z,15.18
2022-10-19T05:40:21.492Z,15.20
2022-10-19T05:42:48.202Z,15.20
2022-10-19T05:45:15.016Z,15.20
2022-10-19T05:47:41.766Z,15.20
2022-10-19T05:50:08.780Z,15.21
2022-10-19T05:52:35.502Z,15.21
2022-10-19T05:55:02.269Z,15.18
2022-10-19T05:57:29.021Z,15.18
2022-10-19T05:59:58.545Z,15.18
2022-10-19T06:02:25.304Z,15.20
2022-10-19T06:04:52.145Z,15.23
2022-10-19T06:07:18.900Z,15.23
2022-10-19T06:09:46.269Z,15.22
2022-10-19T06:12:14.841Z,15.27
2022-10-19T06:14:43.250Z,15.27
2022-10-19T06:17:10.916Z,15.28
2022-10-19T06:19:37.889Z,15.28
2022-10-19T06:22:04.687Z,15.30
2022-10-19T06:24:31.721Z,15.29
2022-10-19T06:27:09.894Z,15.31
2022-10-19T06:29:36.650Z,15.30
2022-10-19T06:32:03.483Z,15.31
2022-10-19T06:34:30.388Z,15.35
2022-10-19T06:37:03.762Z,15.37
2022-10-19T06:39:30.615Z,15.37
2022-10-19T06:41:57.364Z,15.37
2022-10-19T06:44:24.095Z,15.37
2022-10-19T06:46:50.805Z,15.38
2022-10-19T06:49:17.778Z,15.41
2022-10-19T06:51:44.605Z,15.44
2022-10-19T06:54:11.803Z,15.42
2022-10-19T06:56:39.080Z,15.41
2022-10-19T06:59:06.086Z,15.44
2022-10-19T07:01:32.962Z,15.46
2022-10-19T07:03:59.759Z,15.48
2022-10-19T07:06:28.254Z,15.44
2022-10-19T07:08:55.018Z,15.45
2022-10-19T07:11:22.789Z,15.46
2022-10-19T07:13:50.228Z,15.44
2022-10-19T07:16:21.262Z,15.42
2022-10-19T07:18:50.109Z,15.44
2022-10-19T07:21:17.721Z,15.45
2022-10-19T07:23:46.228Z,15.48
2022-10-19T07:26:18.950Z,15.48
2022-10-19T07:28:47.763Z,15.49
2022-10-19T07:31:23.439Z,15.54
2022-10-19T07:33:57.932Z,15.53
2022-10-19T07:36:25.832Z,15.51
2022-10-19T07:38:52.765Z,15.54
2022-10-19T07:41:22.068Z,15.56
2022-10-19T07:43:49.749Z,15.57
2022-10-19T07:46:19.604Z,15.57
2022-10-19T07:48:47.032Z,15.60
2022-10-19T07:51:16.274Z,15.63
2022-10-19T07:53:43.875Z,15.66
2022-10-19T07:56:15.560Z,15.69
2022-10-19T07:58:42.975Z,15.69
2022-10-19T08:01:15.547Z,15.73
2022-10-19T08:04:42.753Z,15.73
2022-10-19T08:06:29.515Z,15.76
2022-10-19T08:08:56.509Z,15.78
2022-10-19T08:11:24.814Z,15.81
2022-10-19T08:13:52.545Z,15.83
2022-10-19T08:16:41.547Z,15.85
2022-10-19T08:19:10.611Z,15.87
2022-10-19T08:21:38.981Z,15.92
2022-10-19T08:24:06.700Z,15.93
2022-10-19T08:26:35.151Z,15.93
2022-10-19T08:29:03.456Z,15.94
2022-10-19T08:31:30.605Z,15.91
2022-10-19T08:33:57.820Z,15.94
2022-10-19T08:36:26.200Z,15.96
2022-10-19T08:38:52.959Z,15.95
2022-10-19T08:41:33.089Z,15.96
2022-10-19T08:44:13.718Z,15.97
2022-10-19T08:46:43.301Z,15.99
2022-10-19T08:49:16.056Z,16.00
2022-10-19T08:51:43.700Z,16.04
2022-10-19T08:54:16.842Z,16.01
2022-10-19T08:57:18.900Z,16.02
2022-10-19T09:00:03.973Z,16.04
2022-10-19T09:02:39.784Z,16.10
2022-10-19T09:05:41.379Z,16.11
2022-10-19T09:08:15.307Z,16.16
2022-10-19T09:10:49.130Z,16.18
2022-10-19T09:14:03.710Z,16.20
2022-10-19T09:16:27.793Z,16.23
2022-10-19T09:21:48.821Z,16.29
2022-10-19T09:24:33.124Z,16.30
2022-10-19T09:27:22.705Z,16.32
2022-10-19T09:30:02.733Z,16.32
2022-10-19T09:32:36.587Z,16.26
2022-10-19T09:35:14.066Z,16.27
2022-10-19T09:37:45.220Z,16.25
2022-10-19T09:40:18.865Z,16.24
2022-10-19T09:42:45.734Z,16.30
2022-10-19T09:45:39.713Z,16.32
2022-10-19T09:48:37.504Z,16.33
2022-10-19T09:51:12.424Z,16.35
2022-10-19T09:53:54.522Z,16.36
2022-10-19T09:56:26.936Z,16.36
2022-10-19T09:58:59.917Z,16.39
2022-10-19T10:01:42.996Z,16.44
2022-10-19T10:04:15.189Z,16.53
2022-10-19T10:06:44.402Z,16.58
2022-10-19T10:09:27.998Z,16.66
2022-10-19T10:11:59.338Z,16.74
2022-10-19T10:14:30.554Z,16.80
2022-10-19T10:17:16.372Z,16.84
2022-10-19T10:20:11.188Z,16.81
2022-10-19T10:22:38.072Z,16.80
2022-10-19T10:25:16.957Z,16.80
2022-10-19T10:27:55.165Z,16.80
2022-10-19T10:30:21.940Z,16.76
2022-10-19T10:32:53.199Z,16.75
2022-10-19T10:35:25.304Z,16.79
2022-10-19T10:37:53.093Z,16.84
2022-10-19T10:40:31.239Z,16.83
2022-10-19T10:43:18.365Z,16.80
2022-10-19T10:45:49.144Z,16.83
2022-10-19T10:48:28.733Z,16.86
2022-10-19T10:50:57.397Z,16.90
2022-10-19T10:53:35.915Z,16.91
2022-10-19T10:56:04.951Z,16.95
2022-10-19T10:59:26.432Z,16.98
2022-10-19T11:02:17.588Z,16.99
2022-10-19T11:04:52.417Z,17.00
2022-10-19T11:07:31.273Z,16.96
2022-10-19T11:10:02.868Z,16.93
2022-10-19T11:12:37.748Z,16.85
2022-10-19T11:15:13.570Z,16.82
2022-10-19T11:17:57.240Z,16.82
2022-10-19T11:20:27.924Z,16.85
2022-10-19T11:23:00.827Z,16.80
2022-10-19T11:25:44.494Z,16.84
2022-10-19T11:28:42.406Z,16.89
2022-10-19T11:31:35.542Z,16.91
2022-10-19T11:34:37.205Z,16.95
2022-10-19T11:37:11.286Z,16.97
2022-10-19T11:39:47.205Z,16.99
2022-10-19T11:42:31.707Z,17.02
2022-10-19T11:45:25.774Z,17.06
2022-10-19T11:48:14.385Z,17.12
2022-10-19T11:50:54.358Z,17.18
2022-10-19T11:53:49.226Z,17.24
2022-10-19T11:56:39.200Z,17.27
2022-10-19T11:59:45.473Z,17.26
2022-10-19T12:02:48.073Z,17.18
2022-10-19T12:05:28.110Z,17.15
2022-10-19T12:08:13.365Z,17.09
2022-10-19T12:10:48.227Z,17.06
2022-10-19T12:13:22.454Z,17.05
2022-10-19T12:15:55.581Z,17.08
2022-10-19T12:18:58.403Z,17.10
2022-10-19T12:21:38.368Z,17.12
2022-10-19T12:24:16.400Z,17.19
2022-10-19T12:26:45.654Z,17.27
2022-10-19T12:29:21.566Z,17.33
2022-10-19T12:31:50.326Z,17.41
2022-10-19T12:34:36.132Z,17.45
2022-10-19T12:37:26.510Z,17.52
2022-10-19T12:40:24.677Z,17.51
2022-10-19T12:43:14.389Z,17.52
2022-10-19T12:46:10.229Z,17.53
2022-10-19T12:48:39.422Z,17.52
2022-10-19T12:51:12.118Z,17.49
2022-10-19T12:53:48.993Z,17.48
2022-10-19T12:56:20.950Z,17.44
2022-10-19T12:58:59.917Z,17.46
2022-10-19T13:01:36.055Z,17.50
2022-10-19T13:04:08.030Z,17.51
2022-10-19T13:06:38.645Z,17.52
2022-10-19T13:09:08.429Z,17.58
2022-10-19T13:11:36.252Z,17.61
2022-10-19T13:14:06.429Z,17.60
2022-10-19T13:16:40.418Z,17.66
2022-10-19T13:19:13.301Z,17.69
2022-10-19T13:21:59.780Z,17.71
2022-10-19T13:24:26.614Z,17.73
2022-10-19T13:27:08.487Z,17.72
2022-10-19T13:29:38.993Z,17.76
2022-10-19T13:32:37.963Z,17.79
2022-10-19T13:35:31.766Z,17.77
2022-10-19T13:38:16.788Z,17.78
2022-10-19T13:40:49.782Z,17.82
2022-10-19T13:43:38.867Z,17.84
2022-10-19T13:46:11.524Z,17.81
2022-10-19T13:48:57.296Z,17.81
2022-10-19T13:51:42.201Z,17.79
2022-10-19T13:54:20.979Z,17.77
2022-10-19T13:56:50.685Z,17.78
2022-10-19T13:59:36.228Z,17.76
2022-10-19T14:02:31.332Z,17.78
2022-10-19T14:05:10.796Z,17.75
2022-10-19T14:08:03.160Z,17.76
2022-10-19T14:10:32.796Z,17.78
2022-10-19T14:13:07.047Z,17.77
2022-10-19T14:15:35.699Z,17.73
2022-10-19T14:18:05.809Z,17.72
2022-10-19T14:20:39.282Z,17.69
2022-10-19T14:23:20.454Z,17.71
2022-10-19T14:26:03.580Z,17.70
2022-10-19T14:28:31.888Z,17.69
2022-10-19T14:31:11.468Z,17.70
2022-10-19T14:33:41.203Z,17.73
2022-10-19T14:36:14.695Z,17.76
2022-10-19T14:38:46.660Z,17.76
2022-10-19T14:41:37.492Z,17.67
2022-10-19T14:44:35.638Z,17.65
2022-10-19T14:47:24.495Z,17.55
2022-10-19T14:49:51.556Z,17.51
2022-10-19T14:52:39.029Z,17.49
2022-10-19T14:55:16.905Z,17.41
2022-10-19T14:57:47.770Z,17.40
2022-10-19T15:00:19.493Z,17.39
2022-10-19T15:02:54.744Z,17.38
2022-10-19T15:05:26.172Z,17.42
2022-10-19T15:07:55.844Z,17.40
2022-10-19T15:10:32.323Z,17.39
2022-10-19T15:13:05.026Z,17.45
2022-10-19T15:15:34.550Z,17.51
2022-10-19T15:18:01.385Z,17.51
2022-10-19T15:20:28.265Z,17.51
2022-10-19T15:22:56.739Z,17.49
2022-10-19T15:25:25.333Z,17.48
2022-10-19T15:27:53.874Z,17.46
2022-10-19T15:30:27.589Z,17.44
2022-10-19T15:33:15.396Z,17.44
2022-10-19T15:35:44.716Z,17.44
2022-10-19T15:38:15.038Z,17.41
2022-10-19T15:40:43.980Z,17.40
2022-10-19T15:43:35.621Z,17.38
2022-10-19T15:46:22.233Z,17.35
2022-10-19T15:48:55.527Z,17.31
2022-10-19T15:51:25.194Z,17.24
2022-10-19T15:53:53.674Z,17.17
2022-10-19T15:56:22.231Z,17.17
2022-10-19T15:58:52.819Z,17.17
2022-10-19T16:01:26.486Z,17.08
2022-10-19T16:03:58.727Z,17.08
2022-10-19T16:06:28.546Z,17.09
2022-10-19T16:08:55.608Z,17.04
2022-10-19T16:11:23.373Z,17.02
2022-10-19T16:13:50.363Z,17.00
2022-10-19T16:16:30.002Z,16.96
2022-10-19T16:18:57.486Z,16.95
2022-10-19T16:21:32.207Z,16.95
2022-10-19T16:23:59.565Z,16.96
2022-10-19T16:26:26.819Z,16.94
2022-10-19T16:28:56.637Z,16.94
2022-10-19T16:31:24.093Z,16.89
2022-10-19T16:33:51.445Z,16.86
2022-10-19T16:36:20.425Z,16.80
2022-10-19T16:38:47.880Z,16.76
2022-10-19T16:41:15.310Z,16.78
2022-10-19T16:43:42.288Z,16.75
2022-10-19T16:46:09.376Z,16.71
2022-10-19T16:48:37.148Z,16.68
2022-10-19T16:51:15.470Z,16.68
2022-10-19T16:53:42.303Z,16.68
2022-10-19T16:56:12.681Z,16.69
2022-10-19T16:58:42.081Z,16.67
2022-10-19T17:01:19.083Z,16.67
2022-10-19T17:03:47.856Z,16.65
2022-10-19T17:06:16.189Z,16.65
2022-10-19T17:09:23.270Z,16.63
2022-10-19T17:11:33.183Z,16.57
2022-10-19T17:14:03.187Z,16.56
2022-10-19T17:16:32.308Z,16.57
2022-10-19T17:19:00.444Z,16.60
2022-10-19T17:21:32.906Z,16.56
2022-10-19T17:24:01.666Z,16.55
2022-10-19T17:26:31.153Z,16.53
2022-10-19T17:28:59.192Z,16.54
2022-10-19T17:31:26.880Z,16.56
2022-10-19T17:33:54.193Z,16.55
2022-10-19T17:36:25.491Z,16.55
2022-10-19T17:38:58.315Z,16.51
2022-10-19T17:41:25.751Z,16.55
2022-10-19T17:43:52.988Z,16.53
2022-10-19T17:46:28.279Z,16.47
2022-10-19T17:48:56.361Z,16.45
2022-10-19T17:51:27.531Z,16.44
2022-10-19T17:53:56.735Z,16.43
2022-10-19T17:56:23.925Z,16.43
2022-10-19T17:58:50.952Z,16.46
2022-10-19T18:01:21.372Z,16.48
2022-10-19T18:03:49.385Z,16.50
2022-10-19T18:06:20.869Z,16.52
2022-10-19T18:08:51.493Z,16.53
2022-10-19T18:14:16.660Z,16.54
2022-10-19T18:16:45.971Z,16.54
2022-10-19T18:19:15.195Z,16.56
2022-10-19T18:21:43.898Z,16.57
2022-10-19T18:24:19.548Z,16.59
2022-10-19T18:26:47.220Z,16.60
2022-10-19T18:29:18.027Z,16.61
2022-10-19T18:31:49.249Z,16.66
2022-10-19T18:34:16.289Z,16.65
2022-10-19T18:36:43.700Z,16.67
2022-10-19T18:39:11.995Z,16.66
2022-10-19T18:41:39.138Z,16.63
2022-10-19T18:44:07.076Z,16.64
2022-10-19T18:46:36.337Z,16.67
2022-10-19T18:49:06.904Z,16.67
2022-10-19T18:51:33.925Z,16.70
2022-10-19T18:54:00.719Z,16.73
2022-10-19T18:56:29.525Z,16.73
2022-10-19T18:58:57.470Z,16.78
2022-10-19T19:01:27.010Z,16.75
2022-10-19T19:03:56.313Z,16.76
2022-10-19T19:06:26.263Z,16.77
2022-10-19T19:09:01.202Z,16.83
2022-10-19T19:11:36.029Z,16.84
2022-10-19T19:14:22.044Z,16.87
2022-10-19T19:16:49.156Z,16.86
2022-10-19T19:19:18.190Z,16.87
2022-10-19T19:21:45.907Z,16.88
2022-10-19T19:24:18.054Z,16.87
2022-10-19T19:26:54.029Z,16.88
2022-10-19T19:29:22.300Z,16.91
2022-10-19T19:31:49.941Z,16.94
2022-10-19T19:34:17.352Z,16.97
2022-10-19T19:36:48.961Z,17.03
2022-10-19T19:39:18.920Z,17.03
2022-10-19T19:41:46.279Z,16.99
2022-10-19T19:44:13.049Z,17.01
2022-10-19T19:46:40.117Z,16.98
2022-10-19T19:49:07.334Z,16.97
2022-10-19T19:51:35.639Z,16.97
2022-10-19T19:54:03.631Z,16.98
2022-10-19T19:56:30.771Z,17.00
2022-10-19T19:59:00.015Z,17.03
2022-10-19T20:01:27.193Z,17.03
2022-10-19T20:03:54.475Z,17.02
2022-10-19T20:06:25.025Z,17.04
2022-10-19T20:08:53.334Z,17.05
2022-10-19T20:11:20.141Z,17.05
2022-10-19T20:13:47.123Z,17.06
2022-10-19T20:16:16.801Z,17.07
2022-10-19T20:18:49.886Z,17.08
2022-10-19T20:21:18.094Z,17.11
2022-10-19T20:23:46.837Z,17.11
2022-10-19T20:26:22.692Z,17.10
2022-10-19T20:28:50.176Z,17.09
2022-10-19T20:31:17.307Z,17.10
2022-10-19T20:33:45.120Z,17.11
2022-10-19T20:36:22.271Z,17.10
2022-10-19T20:38:56.932Z,17.10
2022-10-19T20:41:26.649Z,17.12
2022-10-19T20:43:54.432Z,17.13
2022-10-19T20:46:23.516Z,17.13
2022-10-19T20:48:51.409Z,17.15
2022-10-19T20:51:25.902Z,17.15
2022-10-19T20:53:57.623Z,17.15
2022-10-19T20:56:27.972Z,17.15
2022-10-19T20:59:00.246Z,17.13
2022-10-19T21:01:29.469Z,17.13
2022-10-19T21:03:58.441Z,17.13
2022-10-19T21:06:27.132Z,17.15
2022-10-19T21:08:54.227Z,17.12
2022-10-19T21:11:26.607Z,17.12
2022-10-19T21:13:55.286Z,17.12
2022-10-19T21:16:23.347Z,17.09
2022-10-19T21:18:50.925Z,17.10
2022-10-19T21:21:23.712Z,17.09
2022-10-19T21:23:51.726Z,17.09
2022-10-19T21:26:18.940Z,17.07
2022-10-19T21:28:53.421Z,17.07
2022-10-19T21:31:24.329Z,17.08
2022-10-19T21:33:52.284Z,17.07
2022-10-19T21:36:21.327Z,17.08
2022-10-19T21:38:48.978Z,17.08
2022-10-19T21:41:22.253Z,17.08
2022-10-19T21:43:52.637Z,17.09
2022-10-19T21:46:21.346Z,17.10
2022-10-19T21:48:48.644Z,17.09
2022-10-19T21:51:48.474Z,17.13
2022-10-19T21:54:18.687Z,17.11
2022-10-19T21:56:46.529Z,17.10
2022-10-19T21:59:13.457Z,17.11
2022-10-19T22:01:41.498Z,17.12
2022-10-19T22:04:16.840Z,17.12
2022-10-19T22:06:44.024Z,17.10
2022-10-19T22:09:15.280Z,17.10
2022-10-19T22:11:42.076Z,17.13
2022-10-19T22:14:11.664Z,17.13
2022-10-19T22:16:40.119Z,17.14
2022-10-19T22:19:06.894Z,17.15
2022-10-19T22:21:35.430Z,17.16
2022-10-19T22:24:07.230Z,17.15
2022-10-19T22:26:40.371Z,17.15
2022-10-19T22:29:07.966Z,17.16
2022-10-19T22:31:38.351Z,17.17
2022-10-19T22:34:09.517Z,17.17
2022-10-19T22:36:36.828Z,17.19
2022-10-19T22:39:04.876Z,17.19
2022-10-19T22:42:21.242Z,17.18
2022-10-19T22:44:47.953Z,17.19
2022-10-19T22:47:14.756Z,17.19
2022-10-19T22:49:41.565Z,17.19
2022-10-19T22:52:08.417Z,17.19
2022-10-19T22:54:35.283Z,17.17
2022-10-19T22:57:02.366Z,17.16
2022-10-19T22:59:29.091Z,17.15
2022-10-19T23:01:55.873Z,17.16
2022-10-19T23:04:22.627Z,17.16
2022-10-19T23:06:49.373Z,17.16
2022-10-19T23:09:16.079Z,17.15
2022-10-19T23:11:42.779Z,17.16
2022-10-19T23:14:09.697Z,17.16
2022-10-19T23:16:36.506Z,17.15
2022-10-19T23:19:03.256Z,17.11
2022-10-19T23:21:30.083Z,17.11
2022-10-19T23:23:56.780Z,17.10
2022-10-19T23:26:25.106Z,17.12
2022-10-19T23:29:19.975Z,17.15
2022-10-19T23:31:46.722Z,17.14
2022-10-19T23:34:13.679Z,17.12
2022-10-19T23:36:40.579Z,17.11
2022-10-19T23:39:07.884Z,17.11
2022-10-19T23:41:34.676Z,17.13
2022-10-19T23:44:01.412Z,17.16
2022-10-19T23:46:28.295Z,17.15
2022-10-19T23:48:55.110Z,17.13
2022-10-19T23:51:22.128Z,17.14
2022-10-19T23:53:51.141Z,17.12
2022-10-19T23:56:35.882Z,17.12
2022-10-19T23:59:02.967Z,17.12
